createdAt,value
2024-03-09T00:02:33.973Z,89.41
2024-03-09T00:05:14.951Z,89.43
2024-03-09T00:08:09.473Z,89.43
2024-03-09T00:11:18.803Z,89.38
2024-03-09T00:14:28.127Z,89.18
2024-03-09T00:18:00.433Z,89.32
2024-03-09T00:20:53.661Z,89.35
2024-03-09T00:24:00.382Z,89.22
2024-03-09T00:27:26.105Z,89.17
2024-03-09T00:30:29.289Z,89.32
2024-03-09T00:33:47.462Z,89.38
2024-03-09T00:36:39.769Z,89.49
2024-03-09T00:40:19.011Z,89.87
2024-03-09T00:43:10.921Z,90.57
2024-03-09T00:46:29.911Z,89.90
2024-03-09T00:49:52.185Z,90.14
2024-03-09T00:52:27.167Z,90.06
2024-03-09T00:55:20.505Z,90.22
2024-03-09T00:58:02.509Z,90.64
2024-03-09T01:00:47.812Z,90.65
2024-03-09T01:03:36.714Z,90.58
2024-03-09T01:06:09.053Z,90.52
2024-03-09T01:09:09.413Z,90.44
2024-03-09T01:12:08.559Z,90.59
2024-03-09T01:14:37.457Z,90.57
2024-03-09T01:17:51.802Z,90.66
2024-03-09T01:20:43.364Z,90.77
2024-03-09T01:24:12.319Z,90.55
2024-03-09T01:26:42.214Z,90.37
2024-03-09T01:29:26.592Z,90.40
2024-03-09T01:32:07.215Z,90.47
2024-03-09T01:34:39.243Z,90.77
2024-03-09T01:38:07.273Z,90.68
2024-03-09T01:40:56.080Z,90.74
2024-03-09T01:43:58.285Z,90.86
2024-03-09T01:47:30.637Z,90.76
2024-03-09T01:50:16.915Z,90.94
2024-03-09T01:53:09.417Z,91.00
2024-03-09T01:55:51.082Z,90.83
2024-03-09T01:58:55.299Z,90.77
2024-03-09T02:02:09.873Z,90.75
2024-03-09T02:05:19.493Z,90.72
2024-03-09T02:08:08.670Z,90.70
2024-03-09T02:11:07.181Z,90.67
2024-03-09T02:14:25.712Z,90.69
2024-03-09T02:17:19.106Z,90.95
2024-03-09T02:20:02.120Z,90.68
2024-03-09T02:22:36.604Z,90.87
2024-03-09T02:25:41.560Z,90.86
2024-03-09T02:28:24.831Z,90.99
2024-03-09T02:31:04.203Z,91.11
2024-03-09T02:33:36.217Z,91.13
2024-03-09T02:36:49.549Z,91.11
2024-03-09T02:40:34.493Z,91.30
2024-03-09T02:43:09.832Z,91.35
2024-03-09T02:45:51.160Z,91.29
2024-03-09T02:49:02.398Z,91.11
2024-03-09T02:52:10.591Z,90.84
2024-03-09T02:55:06.177Z,91.07
2024-03-09T02:57:35.127Z,91.27
2024-03-09T03:01:24.252Z,91.20
2024-03-09T03:05:13.500Z,90.60
2024-03-09T03:08:16.219Z,90.85
2024-03-09T03:12:05.464Z,91.01
2024-03-09T03:15:05.537Z,91.49
2024-03-09T03:17:59.614Z,91.51
2024-03-09T03:21:37.721Z,91.39
2024-03-09T03:24:27.060Z,91.19
2024-03-09T03:27:59.169Z,91.40
2024-03-09T03:31:10.228Z,91.05
2024-03-09T03:34:22.684Z,91.19
2024-03-09T03:37:42.997Z,91.08
2024-03-09T03:40:34.843Z,91.35
2024-03-09T03:44:15.640Z,91.23
2024-03-09T03:47:00.701Z,91.24
2024-03-09T03:50:12.088Z,91.35
2024-03-09T03:53:13.392Z,91.33
2024-03-09T03:56:40.856Z,91.17
2024-03-09T03:59:30.862Z,90.93
2024-03-09T04:02:34.459Z,90.59
2024-03-09T04:05:34.646Z,90.88
2024-03-09T04:08:31.956Z,90.64
2024-03-09T04:12:11.806Z,90.57
2024-03-09T04:15:01.590Z,91.13
2024-03-09T04:18:13.583Z,91.44
2024-03-09T04:20:57.349Z,91.42
2024-03-09T04:24:25.302Z,91.30
2024-03-09T04:28:14.500Z,91.69
2024-03-09T04:31:45.564Z,91.53
2024-03-09T04:34:27.425Z,91.86
2024-03-09T04:38:01.974Z,91.56
2024-03-09T04:41:32.739Z,91.38
2024-03-09T04:44:47.190Z,91.54
2024-03-09T04:47:46.657Z,91.51
2024-03-09T04:50:53.980Z,91.49
2024-03-09T04:54:21.327Z,91.53
2024-03-09T04:57:40.071Z,91.52
2024-03-09T05:01:00.109Z,91.50
2024-03-09T05:04:38.593Z,91.32
2024-03-09T05:07:43.071Z,91.61
2024-03-09T05:10:55.126Z,91.73
2024-03-09T05:13:50.910Z,91.70
2024-03-09T05:17:09.498Z,91.54
2024-03-09T05:20:21.580Z,90.88
2024-03-09T05:24:00.817Z,90.93
2024-03-09T05:27:22.275Z,90.88
2024-03-09T05:30:51.365Z,90.99
2024-03-09T05:33:43.372Z,91.43
2024-03-09T05:36:56.537Z,91.49
2024-03-09T05:40:06.467Z,91.41
2024-03-09T05:43:09.809Z,91.43
2024-03-09T05:46:33.729Z,91.58
2024-03-09T05:50:12.630Z,91.65
2024-03-09T05:53:27.677Z,91.71
2024-03-09T05:56:56.943Z,91.71
2024-03-09T05:59:48.900Z,91.83
2024-03-09T06:02:46.371Z,91.72
2024-03-09T06:05:39.059Z,91.45
2024-03-09T06:08:31.100Z,91.49
2024-03-09T06:11:36.419Z,91.33
2024-03-09T06:15:18.785Z,91.42
2024-03-09T06:18:26.419Z,91.29
2024-03-09T06:21:23.405Z,91.19
2024-03-09T06:24:01.879Z,91.39
2024-03-09T06:26:35.338Z,91.58
2024-03-09T06:29:11.654Z,91.35
2024-03-09T06:31:44.647Z,90.96
2024-03-09T06:34:16.793Z,91.09
2024-03-09T06:36:56.686Z,90.64
2024-03-09T06:40:06.197Z,90.52
2024-03-09T06:42:59.461Z,90.42
2024-03-09T06:45:31.032Z,90.46
2024-03-09T06:48:24.911Z,90.33
2024-03-09T06:51:00.272Z,90.20
2024-03-09T06:53:43.253Z,89.81
2024-03-09T06:56:16.368Z,89.83
2024-03-09T06:59:08.354Z,89.39
2024-03-09T07:01:40.209Z,88.46
2024-03-09T07:04:22.585Z,88.82
2024-03-09T07:07:04.750Z,88.48
2024-03-09T07:09:53.446Z,88.20
2024-03-09T07:12:44.864Z,87.81
2024-03-09T07:15:34.147Z,87.39
2024-03-09T07:18:25.774Z,87.36
2024-03-09T07:21:24.697Z,86.87
2024-03-09T07:24:07.673Z,85.12
2024-03-09T07:26:58.934Z,84.27
2024-03-09T07:29:36.588Z,84.99
2024-03-09T07:32:10.644Z,84.28
2024-03-09T07:35:15.738Z,83.25
2024-03-09T07:38:01.073Z,82.25
2024-03-09T07:41:10.845Z,82.65
2024-03-09T07:43:51.576Z,80.59
2024-03-09T07:46:23.630Z,81.91
2024-03-09T07:48:52.540Z,82.09
2024-03-09T07:51:21.393Z,81.83
2024-03-09T07:54:22.183Z,80.65
2024-03-09T07:57:12.781Z,81.17
2024-03-09T07:59:41.852Z,79.48
2024-03-09T08:02:15.210Z,78.98
2024-03-09T08:04:55.687Z,78.60
2024-03-09T08:07:27.336Z,78.10
2024-03-09T08:09:56.055Z,77.83
2024-03-09T08:12:50.655Z,76.34
2024-03-09T08:15:25.145Z,76.71
2024-03-09T08:18:02.916Z,77.11
2024-03-09T08:20:51.586Z,76.33
2024-03-09T08:23:24.874Z,76.14
2024-03-09T08:25:54.254Z,75.49
2024-03-09T08:28:25.745Z,74.31
2024-03-09T08:31:14.908Z,72.79
2024-03-09T08:33:44.673Z,72.40
2024-03-09T08:36:38.521Z,72.43
2024-03-09T08:39:27.343Z,71.83
2024-03-09T08:42:29.501Z,71.38
2024-03-09T08:45:42.159Z,72.37
2024-03-09T08:48:13.551Z,70.75
2024-03-09T08:50:45.169Z,69.86
2024-03-09T08:53:18.534Z,68.28
2024-03-09T08:55:57.455Z,69.91
2024-03-09T08:58:26.019Z,68.93
2024-03-09T09:00:54.905Z,68.03
2024-03-09T09:03:24.756Z,68.03
2024-03-09T09:05:56.731Z,67.72
2024-03-09T09:08:27.864Z,66.69
2024-03-09T09:10:57.048Z,65.41
2024-03-09T09:13:28.733Z,63.77
2024-03-09T09:15:57.304Z,63.52
2024-03-09T09:18:28.388Z,63.13
2024-03-09T09:20:56.915Z,64.39
2024-03-09T09:23:25.561Z,64.21
2024-03-09T09:26:02.502Z,64.23
2024-03-09T09:28:31.242Z,64.36
2024-03-09T09:30:59.747Z,64.79
2024-03-09T09:33:31.111Z,65.03
2024-03-09T09:36:02.854Z,65.20
2024-03-09T09:38:32.630Z,65.46
2024-03-09T09:41:01.241Z,65.63
2024-03-09T09:43:30.234Z,65.24
2024-03-09T09:46:03.530Z,65.77
2024-03-09T09:48:42.227Z,63.36
2024-03-09T09:51:12.630Z,65.32
2024-03-09T09:53:43.546Z,64.42
2024-03-09T09:56:12.029Z,63.03
2024-03-09T09:58:40.877Z,59.10
2024-03-09T10:01:09.600Z,58.80
2024-03-09T10:03:38.117Z,59.58
2024-03-09T10:06:19.817Z,57.52
2024-03-09T10:08:49.583Z,56.53
2024-03-09T10:11:19.268Z,56.77
2024-03-09T10:13:49.345Z,53.77
2024-03-09T10:16:18.669Z,53.46
2024-03-09T10:18:50.664Z,54.75
2024-03-09T10:21:28.113Z,54.15
2024-03-09T10:24:07.208Z,54.01
2024-03-09T10:26:37.392Z,53.34
2024-03-09T10:29:06.065Z,54.19
2024-03-09T10:31:37.253Z,53.60
2024-03-09T10:34:09.800Z,53.00
2024-03-09T10:36:39.189Z,53.28
2024-03-09T10:39:11.185Z,54.15
2024-03-09T10:41:41.929Z,52.12
2024-03-09T10:44:11.827Z,52.36
2024-03-09T10:46:44.856Z,50.35
2024-03-09T10:49:14.018Z,50.07
2024-03-09T10:51:55.803Z,50.65
2024-03-09T10:54:44.649Z,49.64
2024-03-09T10:57:23.051Z,50.54
2024-03-09T10:59:53.229Z,49.92
2024-03-09T11:02:21.996Z,47.44
2024-03-09T11:04:54.010Z,45.49
2024-03-09T11:07:23.923Z,44.97
2024-03-09T11:09:55.104Z,45.19
2024-03-09T11:12:23.932Z,43.12
2024-03-09T11:14:53.734Z,41.92
2024-03-09T11:17:23.453Z,42.74
2024-03-09T11:19:57.499Z,43.40
2024-03-09T11:22:42.840Z,42.87
2024-03-09T11:25:14.015Z,43.08
2024-03-09T11:27:47.167Z,43.89
2024-03-09T11:30:18.361Z,45.23
2024-03-09T11:32:48.027Z,45.35
2024-03-09T11:35:33.841Z,42.02
2024-03-09T11:38:13.407Z,40.91
2024-03-09T11:40:42.055Z,39.45
2024-03-09T11:43:15.980Z,38.76
2024-03-09T11:45:46.667Z,38.99
2024-03-09T11:48:15.062Z,37.08
2024-03-09T11:50:43.341Z,38.95
2024-03-09T11:53:11.599Z,39.26
2024-03-09T11:55:40.225Z,38.36
2024-03-09T11:58:08.903Z,39.47
2024-03-09T12:00:37.381Z,40.69
2024-03-09T12:03:16.436Z,40.75
2024-03-09T12:05:44.974Z,40.84
2024-03-09T12:08:14.097Z,40.06
2024-03-09T12:10:44.054Z,40.42
2024-03-09T12:13:13.360Z,40.70
2024-03-09T12:15:43.128Z,41.71
2024-03-09T12:18:13.295Z,41.90
2024-03-09T12:20:43.594Z,42.27
2024-03-09T12:23:13.365Z,43.37
2024-03-09T12:25:43.120Z,44.41
2024-03-09T12:28:11.647Z,45.51
2024-03-09T12:30:40.623Z,45.67
2024-03-09T12:33:11.863Z,46.08
2024-03-09T12:35:43.677Z,46.63
2024-03-09T12:38:16.294Z,47.30
2024-03-09T12:40:48.665Z,47.02
2024-03-09T12:43:17.295Z,48.08
2024-03-09T12:45:53.548Z,48.67
2024-03-09T12:48:25.181Z,48.56
2024-03-09T12:50:56.786Z,49.28
2024-03-09T12:53:25.708Z,50.18
2024-03-09T12:55:54.109Z,50.00
2024-03-09T12:58:22.895Z,50.34
2024-03-09T13:00:55.385Z,49.96
2024-03-09T13:03:25.429Z,49.73
2024-03-09T13:05:53.938Z,50.56
2024-03-09T13:08:27.663Z,48.74
2024-03-09T13:10:56.876Z,45.77
2024-03-09T13:13:25.097Z,42.56
2024-03-09T13:15:55.775Z,40.45
2024-03-09T13:18:25.336Z,39.62
2024-03-09T13:20:54.674Z,38.70
2024-03-09T13:23:23.302Z,39.66
2024-03-09T13:25:52.555Z,39.91
2024-03-09T13:28:20.905Z,39.98
2024-03-09T13:30:49.537Z,41.78
2024-03-09T13:33:18.200Z,43.04
2024-03-09T13:35:46.796Z,43.86
2024-03-09T13:38:15.172Z,44.66
2024-03-09T13:40:43.654Z,44.71
2024-03-09T13:43:13.625Z,45.65
2024-03-09T13:45:42.504Z,46.36
2024-03-09T13:48:12.720Z,46.66
2024-03-09T13:50:41.906Z,46.64
2024-03-09T13:53:10.339Z,46.79
2024-03-09T13:55:40.545Z,45.08
2024-03-09T13:58:09.091Z,44.44
2024-03-09T14:00:37.618Z,44.19
2024-03-09T14:03:08.552Z,42.11
2024-03-09T14:05:37.683Z,41.60
2024-03-09T14:08:09.622Z,37.47
2024-03-09T14:10:40.791Z,37.24
2024-03-09T14:13:10.126Z,38.04
2024-03-09T14:15:39.157Z,38.18
2024-03-09T14:18:15.685Z,38.77
2024-03-09T14:20:44.472Z,39.86
2024-03-09T14:23:18.091Z,41.00
2024-03-09T14:25:46.569Z,42.57
2024-03-09T14:28:15.463Z,43.01
2024-03-09T14:30:44.037Z,44.06
2024-03-09T14:33:16.733Z,44.90
2024-03-09T14:35:46.417Z,45.65
2024-03-09T14:38:15.803Z,46.17
2024-03-09T14:40:44.367Z,47.11
2024-03-09T14:43:14.246Z,48.86
2024-03-09T14:45:42.838Z,48.85
2024-03-09T14:48:16.616Z,48.83
2024-03-09T14:50:45.533Z,49.54
2024-03-09T14:53:17.180Z,49.96
2024-03-09T14:55:46.758Z,50.15
2024-03-09T14:58:17.626Z,52.71
2024-03-09T15:00:46.141Z,54.99
2024-03-09T15:03:30.239Z,54.50
2024-03-09T15:06:00.213Z,55.34
2024-03-09T15:08:29.635Z,56.60
2024-03-09T15:11:02.621Z,55.79
2024-03-09T15:13:42.086Z,55.73
2024-03-09T15:16:13.607Z,56.18
2024-03-09T15:18:42.202Z,56.73
2024-03-09T15:21:11.186Z,56.70
2024-03-09T15:23:41.005Z,56.76
2024-03-09T15:26:10.550Z,56.99
2024-03-09T15:28:42.572Z,57.91
2024-03-09T15:31:12.355Z,58.03
2024-03-09T15:33:42.345Z,58.70
2024-03-09T15:36:12.656Z,58.70
2024-03-09T15:38:43.620Z,59.47
2024-03-09T15:41:15.357Z,59.42
2024-03-09T15:43:45.113Z,59.19
2024-03-09T15:46:13.974Z,59.37
2024-03-09T15:48:42.825Z,59.94
2024-03-09T15:51:13.999Z,60.54
2024-03-09T15:53:43.120Z,62.39
2024-03-09T15:56:12.774Z,63.02
2024-03-09T15:58:42.375Z,63.11
2024-03-09T16:01:17.306Z,63.59
2024-03-09T16:03:46.284Z,63.35
2024-03-09T16:06:18.029Z,63.25
2024-03-09T16:08:46.925Z,63.05
2024-03-09T16:11:15.396Z,63.24
2024-03-09T16:13:44.292Z,63.39
2024-03-09T16:16:25.251Z,63.65
2024-03-09T16:18:53.794Z,63.97
2024-03-09T16:21:22.594Z,64.08
2024-03-09T16:23:55.240Z,65.22
2024-03-09T16:26:24.140Z,64.88
2024-03-09T16:28:52.572Z,65.05
2024-03-09T16:31:24.537Z,65.51
2024-03-09T16:33:55.509Z,65.62
2024-03-09T16:36:23.902Z,65.36
2024-03-09T16:38:52.499Z,65.33
2024-03-09T16:41:24.728Z,65.44
2024-03-09T16:43:57.189Z,65.32
2024-03-09T16:46:26.976Z,65.39
2024-03-09T16:49:13.214Z,65.49
2024-03-09T16:51:53.240Z,66.02
2024-03-09T16:54:22.023Z,67.54
2024-03-09T16:57:01.541Z,67.47
2024-03-09T16:59:52.654Z,68.12
2024-03-09T17:02:24.483Z,68.40
2024-03-09T17:05:15.668Z,69.24
2024-03-09T17:07:44.342Z,69.15
2024-03-09T17:10:17.187Z,69.22
2024-03-09T17:12:53.378Z,69.51
2024-03-09T17:15:24.184Z,70.37
2024-03-09T17:18:23.672Z,70.59
2024-03-09T17:21:07.363Z,70.94
2024-03-09T17:23:58.580Z,71.30
2024-03-09T17:26:33.646Z,72.23
2024-03-09T17:29:22.360Z,73.25
2024-03-09T17:31:55.365Z,74.27
2024-03-09T17:34:24.461Z,73.64
2024-03-09T17:36:56.392Z,73.79
2024-03-09T17:39:28.813Z,73.48
2024-03-09T17:41:59.152Z,73.22
2024-03-09T17:44:48.019Z,73.37
2024-03-09T17:47:39.861Z,73.29
2024-03-09T17:50:15.592Z,73.32
2024-03-09T17:53:06.684Z,73.24
2024-03-09T17:55:59.845Z,73.20
2024-03-09T17:58:29.811Z,74.24
2024-03-09T18:00:58.794Z,74.23
2024-03-09T18:03:30.660Z,73.96
2024-03-09T18:06:02.665Z,74.02
2024-03-09T18:08:33.502Z,74.10
2024-03-09T18:12:02.555Z,73.81
2024-03-09T18:14:34.721Z,73.70
2024-03-09T18:17:08.605Z,73.94
2024-03-09T18:19:46.149Z,74.33
2024-03-09T18:22:17.695Z,74.57
2024-03-09T18:24:53.644Z,74.61
2024-03-09T18:27:53.731Z,74.43
2024-03-09T18:30:33.119Z,74.37
2024-03-09T18:33:14.420Z,74.12
2024-03-09T18:36:33.914Z,74.46
2024-03-09T18:39:05.257Z,75.17
2024-03-09T18:41:53.915Z,75.29
2024-03-09T18:45:05.801Z,75.42
2024-03-09T18:47:38.145Z,75.35
2024-03-09T18:50:41.326Z,75.32
2024-03-09T18:53:19.355Z,76.16
2024-03-09T18:56:34.211Z,75.96
2024-03-09T18:59:45.595Z,75.99
2024-03-09T19:02:17.418Z,76.01
2024-03-09T19:05:06.806Z,76.33
2024-03-09T19:08:19.163Z,76.89
2024-03-09T19:10:47.921Z,77.29
2024-03-09T19:13:28.935Z,77.12
2024-03-09T19:16:48.876Z,77.33
2024-03-09T19:19:27.865Z,77.75
2024-03-09T19:22:47.051Z,77.43
2024-03-09T19:25:17.192Z,77.66
2024-03-09T19:28:09.418Z,77.54
2024-03-09T19:31:01.318Z,77.58
2024-03-09T19:33:53.724Z,77.44
2024-03-09T19:36:58.835Z,77.54
2024-03-09T19:39:50.835Z,78.08
2024-03-09T19:42:32.401Z,78.09
2024-03-09T19:45:06.864Z,77.79
2024-03-09T19:47:58.473Z,77.76
2024-03-09T19:50:37.728Z,77.78
2024-03-09T19:53:35.812Z,77.79
2024-03-09T19:56:25.266Z,77.76
2024-03-09T19:59:02.199Z,78.06
2024-03-09T20:01:38.372Z,78.32
2024-03-09T20:04:39.039Z,79.05
2024-03-09T20:07:37.593Z,78.63
2024-03-09T20:10:29.089Z,78.93
2024-03-09T20:13:23.637Z,78.67
2024-03-09T20:16:15.597Z,79.07
2024-03-09T20:18:46.822Z,79.35
2024-03-09T20:22:03.224Z,79.28
2024-03-09T20:25:11.320Z,79.34
2024-03-09T20:28:18.845Z,79.12
2024-03-09T20:31:33.209Z,79.07
2024-03-09T20:34:07.576Z,79.22
2024-03-09T20:37:18.964Z,79.33
2024-03-09T20:40:01.183Z,79.31
2024-03-09T20:43:13.654Z,79.16
2024-03-09T20:45:55.340Z,79.54
2024-03-09T20:48:51.616Z,79.26
2024-03-09T20:52:06.419Z,79.39
2024-03-09T20:55:30.254Z,79.54
2024-03-09T20:58:37.298Z,79.69
2024-03-09T21:01:51.676Z,79.73
2024-03-09T21:05:44.136Z,79.74
2024-03-09T21:08:33.153Z,79.98
2024-03-09T21:11:43.154Z,80.28
2024-03-09T21:14:15.180Z,80.04
2024-03-09T21:17:09.759Z,79.86
2024-03-09T21:19:45.962Z,79.87
2024-03-09T21:22:18.511Z,80.14
2024-03-09T21:24:51.691Z,80.25
2024-03-09T21:27:22.370Z,80.92
2024-03-09T21:30:16.220Z,81.27
2024-03-09T21:32:48.782Z,82.05
2024-03-09T21:35:43.414Z,81.64
2024-03-09T21:38:14.528Z,81.24
2024-03-09T21:41:17.034Z,81.18
2024-03-09T21:44:09.783Z,81.29
2024-03-09T21:46:41.933Z,81.22
2024-03-09T21:49:44.240Z,81.08
2024-03-09T21:52:35.418Z,80.88
2024-03-09T21:55:47.258Z,81.03
2024-03-09T21:58:38.882Z,80.79
2024-03-09T22:01:50.805Z,80.79
2024-03-09T22:04:22.323Z,80.84
2024-03-09T22:07:31.491Z,80.91
2024-03-09T22:10:22.991Z,80.72
2024-03-09T22:13:15.163Z,81.02
2024-03-09T22:16:23.520Z,81.31
2024-03-09T22:19:18.769Z,81.22
2024-03-09T22:22:13.764Z,81.20
2024-03-09T22:25:26.871Z,81.99
2024-03-09T22:28:56.744Z,81.47
2024-03-09T22:31:31.470Z,81.45
2024-03-09T22:34:09.653Z,81.51
2024-03-09T22:37:14.694Z,81.52
2024-03-09T22:40:26.945Z,81.44
2024-03-09T22:43:04.655Z,81.45
2024-03-09T22:45:57.086Z,81.63
2024-03-09T22:48:59.897Z,82.21
2024-03-09T22:51:42.862Z,82.24
2024-03-09T22:54:41.574Z,81.99
2024-03-09T22:57:43.308Z,82.04
2024-03-09T23:00:20.322Z,81.91
2024-03-09T23:03:50.409Z,82.02
2024-03-09T23:07:08.286Z,81.75
2024-03-09T23:10:05.178Z,82.04
2024-03-09T23:12:54.283Z,81.87
2024-03-09T23:15:44.077Z,81.73
2024-03-09T23:18:52.272Z,81.94
2024-03-09T23:21:27.035Z,82.26
2024-03-09T23:24:09.009Z,81.92
2024-03-09T23:26:58.535Z,81.91
2024-03-09T23:30:10.613Z,82.07
2024-03-09T23:33:08.215Z,82.07
2024-03-09T23:35:45.916Z,83.68
2024-03-09T23:38:42.872Z,82.98
2024-03-09T23:41:34.956Z,83.15
2024-03-09T23:44:23.168Z,83.43
2024-03-09T23:47:17.373Z,83.42
2024-03-09T23:50:14.406Z,83.80
2024-03-09T23:53:17.099Z,84.12
2024-03-09T23:56:12.120Z,83.51
2024-03-09T23:59:11.119Z,83.45
